createdAt,value
2017-11-24T00:00:40.916Z,13.63
2017-11-24T00:03:06.850Z,13.75
2017-11-24T00:05:32.776Z,13.41
2017-11-24T00:07:58.731Z,12.81
2017-11-24T00:10:24.664Z,12.56
2017-11-24T00:12:50.597Z,12.45
2017-11-24T00:15:16.526Z,12.13
2017-11-24T00:17:42.471Z,12.00
2017-11-24T00:20:08.420Z,12.26
2017-11-24T00:22:34.372Z,12.56
2017-11-24T00:25:00.300Z,12.41
2017-11-24T00:27:26.231Z,12.63
2017-11-24T00:29:52.177Z,12.42
2017-11-24T00:32:18.337Z,12.47
2017-11-24T00:34:44.281Z,12.54
2017-11-24T00:37:10.211Z,12.66
2017-11-24T00:39:36.141Z,12.36
2017-11-24T00:42:02.478Z,12.31
2017-11-24T00:44:28.404Z,12.29
2017-11-24T00:46:54.340Z,12.03
2017-11-24T00:49:20.293Z,11.93
2017-11-24T00:51:46.238Z,11.88
2017-11-24T00:54:12.168Z,12.14
2017-11-24T00:56:38.100Z,12.04
2017-11-24T00:59:04.027Z,11.96
2017-11-24T01:01:29.972Z,11.75
2017-11-24T01:03:55.916Z,11.72
2017-11-24T01:06:21.848Z,11.78
2017-11-24T01:08:47.886Z,11.87
2017-11-24T01:11:13.835Z,11.72
2017-11-24T01:13:39.767Z,11.76
2017-11-24T01:16:05.733Z,11.73
2017-11-24T01:18:31.652Z,12.03
2017-11-24T01:20:57.584Z,11.94
2017-11-24T01:23:23.510Z,11.92
2017-11-24T01:25:49.447Z,11.73
2017-11-24T01:28:15.376Z,11.84
2017-11-24T01:30:41.301Z,11.76
2017-11-24T01:33:07.241Z,11.74
2017-11-24T01:35:33.200Z,11.70
2017-11-24T01:37:59.124Z,11.38
2017-11-24T01:40:25.078Z,11.57
2017-11-24T01:42:51.030Z,11.53
2017-11-24T01:45:16.943Z,11.45
2017-11-24T01:47:42.904Z,11.40
2017-11-24T01:50:08.836Z,11.33
2017-11-24T01:52:34.777Z,11.47
2017-11-24T01:55:00.743Z,11.47
2017-11-24T01:57:26.672Z,11.59
2017-11-24T01:59:52.630Z,11.63
2017-11-24T02:02:18.560Z,11.34
2017-11-24T02:04:44.480Z,11.29
2017-11-24T02:07:10.418Z,11.33
2017-11-24T02:09:36.351Z,11.11
2017-11-24T02:12:02.288Z,11.43
2017-11-24T02:14:28.249Z,11.40
2017-11-24T02:16:54.177Z,11.42
2017-11-24T02:19:20.130Z,11.29
2017-11-24T02:21:46.085Z,11.11
2017-11-24T02:24:12.009Z,11.26
2017-11-24T02:26:37.930Z,11.28
2017-11-24T02:29:03.880Z,11.30
2017-11-24T02:31:29.816Z,11.58
2017-11-24T02:33:55.766Z,11.46
2017-11-24T02:36:21.698Z,11.52
2017-11-24T02:38:47.634Z,11.18
2017-11-24T02:41:13.580Z,11.47
2017-11-24T02:43:39.516Z,11.24
2017-11-24T02:46:05.443Z,11.30
2017-11-24T02:48:31.391Z,11.31
2017-11-24T02:50:57.356Z,11.32
2017-11-24T02:53:23.281Z,11.47
2017-11-24T02:55:49.239Z,11.33
2017-11-24T02:58:15.177Z,11.12
2017-11-24T03:00:41.108Z,11.07
2017-11-24T03:03:07.040Z,10.71
2017-11-24T03:05:33.040Z,10.75
2017-11-24T03:07:58.964Z,10.61
2017-11-24T03:10:24.886Z,10.79
2017-11-24T03:12:50.820Z,10.60
2017-11-24T03:15:16.751Z,10.71
2017-11-24T03:17:42.689Z,10.73
2017-11-24T03:20:08.638Z,10.62
2017-11-24T03:22:34.569Z,10.87
2017-11-24T03:25:00.500Z,10.57
2017-11-24T03:27:26.443Z,10.61
2017-11-24T03:29:52.390Z,10.76
2017-11-24T03:32:18.328Z,10.93
2017-11-24T03:34:44.254Z,10.83
2017-11-24T03:37:10.175Z,10.88
2017-11-24T03:39:36.102Z,10.70
2017-11-24T03:42:02.317Z,10.90
2017-11-24T03:44:28.252Z,10.79
2017-11-24T03:46:54.195Z,10.78
2017-11-24T03:49:20.115Z,10.81
2017-11-24T03:51:46.047Z,10.91
2017-11-24T03:54:11.993Z,11.03
2017-11-24T03:56:37.935Z,10.93
2017-11-24T03:59:03.860Z,10.90
2017-11-24T04:01:29.805Z,10.72
2017-11-24T04:03:55.737Z,10.66
2017-11-24T04:06:21.672Z,10.80
2017-11-24T04:08:47.626Z,10.43
2017-11-24T04:11:13.556Z,10.64
2017-11-24T04:13:39.480Z,10.64
2017-11-24T04:16:05.426Z,10.77
2017-11-24T04:18:31.378Z,10.92
2017-11-24T04:20:57.338Z,10.99
2017-11-24T04:23:23.275Z,10.83
2017-11-24T04:25:49.211Z,11.09
2017-11-24T04:28:15.156Z,10.94
2017-11-24T04:30:41.082Z,11.19
2017-11-24T04:33:07.033Z,11.16
2017-11-24T04:35:32.952Z,11.10
2017-11-24T04:37:58.908Z,11.18
2017-11-24T04:40:24.852Z,11.05
2017-11-24T04:42:50.796Z,11.23
2017-11-24T04:45:16.732Z,11.07
2017-11-24T04:47:42.678Z,10.84
2017-11-24T04:50:08.644Z,10.98
2017-11-24T04:52:34.572Z,11.09
2017-11-24T04:55:00.504Z,11.15
2017-11-24T04:57:26.440Z,11.04
2017-11-24T04:59:52.374Z,11.16
2017-11-24T05:02:18.357Z,11.07
2017-11-24T05:04:44.314Z,10.78
2017-11-24T05:07:10.270Z,11.03
2017-11-24T05:09:36.200Z,10.91
2017-11-24T05:12:02.438Z,10.92
2017-11-24T05:14:28.402Z,11.07
2017-11-24T05:16:54.324Z,11.02
2017-11-24T05:19:20.260Z,11.03
2017-11-24T05:21:46.198Z,10.86
2017-11-24T05:24:12.143Z,11.06
2017-11-24T05:26:38.067Z,11.17
2017-11-24T05:29:04.022Z,11.10
2017-11-24T05:31:29.970Z,11.24
2017-11-24T05:33:55.907Z,11.06
2017-11-24T05:36:21.847Z,10.79
2017-11-24T05:38:47.763Z,11.01
2017-11-24T05:41:13.700Z,10.92
2017-11-24T05:43:39.626Z,10.91
2017-11-24T05:46:05.568Z,10.95
2017-11-24T05:48:31.530Z,10.84
2017-11-24T05:50:57.475Z,10.81
2017-11-24T05:53:23.395Z,10.72
2017-11-24T05:55:49.317Z,10.46
2017-11-24T05:58:15.258Z,10.35
2017-11-24T06:00:41.184Z,10.66
2017-11-24T06:03:07.143Z,10.34
2017-11-24T06:05:33.076Z,10.58
2017-11-24T06:07:59.002Z,10.81
2017-11-24T06:10:24.929Z,10.88
2017-11-24T06:12:50.854Z,10.92
2017-11-24T06:15:16.795Z,10.74
2017-11-24T06:17:42.724Z,10.93
2017-11-24T06:20:08.670Z,10.88
2017-11-24T06:22:34.610Z,10.74
2017-11-24T06:25:00.605Z,10.77
2017-11-24T06:27:27.770Z,10.87
2017-11-24T06:29:53.749Z,10.91
2017-11-24T06:32:19.692Z,10.99
2017-11-24T06:34:45.631Z,11.02
2017-11-24T06:37:11.606Z,10.74
2017-11-24T06:39:37.537Z,10.78
2017-11-24T06:42:03.468Z,10.48
2017-11-24T06:44:29.392Z,10.53
2017-11-24T06:46:55.321Z,10.44
2017-11-24T06:49:21.287Z,10.30
2017-11-24T06:51:47.250Z,10.52
2017-11-24T06:54:13.298Z,10.36
2017-11-24T06:56:39.244Z,10.38
2017-11-24T06:59:05.168Z,10.23
2017-11-24T07:01:31.120Z,10.54
2017-11-24T07:03:57.057Z,10.37
2017-11-24T07:06:22.996Z,10.55
2017-11-24T07:08:48.928Z,10.56
2017-11-24T07:11:14.852Z,10.40
2017-11-24T07:13:40.799Z,10.66
2017-11-24T07:16:06.748Z,10.56
2017-11-24T07:18:32.675Z,10.52
2017-11-24T07:20:58.706Z,10.68
2017-11-24T07:23:24.748Z,10.81
2017-11-24T07:25:50.664Z,10.76
2017-11-24T07:28:16.602Z,10.71
2017-11-24T07:30:42.546Z,10.79
2017-11-24T07:33:08.482Z,10.74
2017-11-24T07:35:34.492Z,10.78
2017-11-24T07:38:00.467Z,10.84
2017-11-24T07:40:26.394Z,10.71
2017-11-24T07:42:52.447Z,10.69
2017-11-24T07:45:18.389Z,10.78
2017-11-24T07:47:44.330Z,10.87
2017-11-24T07:50:10.275Z,10.80
2017-11-24T07:52:36.215Z,10.90
2017-11-24T07:55:02.148Z,10.72
2017-11-24T07:57:28.080Z,10.69
2017-11-24T07:59:54.012Z,10.77
2017-11-24T08:02:19.976Z,11.09
2017-11-24T08:04:45.915Z,11.02
2017-11-24T08:07:11.832Z,11.11
2017-11-24T08:09:37.761Z,11.08
2017-11-24T08:12:03.700Z,11.19
2017-11-24T08:14:29.661Z,11.32
2017-11-24T08:16:55.594Z,11.38
2017-11-24T08:19:21.520Z,11.43
2017-11-24T08:21:47.448Z,11.51
2017-11-24T08:24:13.392Z,11.53
2017-11-24T08:26:39.351Z,11.45
2017-11-24T08:29:05.292Z,11.65
2017-11-24T08:31:31.260Z,11.45
2017-11-24T08:33:57.197Z,11.51
2017-11-24T08:36:23.148Z,11.46
2017-11-24T08:38:49.108Z,11.52
2017-11-24T08:41:15.041Z,11.54
2017-11-24T08:43:40.998Z,11.58
2017-11-24T08:46:06.948Z,11.78
2017-11-24T08:48:32.876Z,11.73
2017-11-24T08:50:58.813Z,11.88
2017-11-24T08:53:24.736Z,11.87
2017-11-24T08:55:50.719Z,11.82
2017-11-24T08:58:16.653Z,11.89
2017-11-24T09:00:42.584Z,12.05
2017-11-24T09:03:08.516Z,12.20
2017-11-24T09:05:34.484Z,12.08
2017-11-24T09:08:00.423Z,12.18
2017-11-24T09:10:26.375Z,12.19
2017-11-24T09:12:52.304Z,12.20
2017-11-24T09:15:18.234Z,12.25
2017-11-24T09:17:44.165Z,12.30
2017-11-24T09:20:10.104Z,12.23
2017-11-24T09:22:36.118Z,12.39
2017-11-24T09:25:02.071Z,12.44
2017-11-24T09:27:28.007Z,12.49
2017-11-24T09:29:53.949Z,12.57
2017-11-24T09:32:19.917Z,12.48
2017-11-24T09:34:45.868Z,12.65
2017-11-24T09:37:11.833Z,12.68
2017-11-24T09:39:38.190Z,12.70
2017-11-24T09:42:04.128Z,12.94
2017-11-24T09:44:30.060Z,12.94
2017-11-24T09:46:56.022Z,12.96
2017-11-24T09:49:21.956Z,12.92
2017-11-24T09:51:47.902Z,13.02
2017-11-24T09:54:13.834Z,13.17
2017-11-24T09:56:39.780Z,13.32
2017-11-24T09:59:05.727Z,13.46
2017-11-24T10:01:31.690Z,13.41
2017-11-24T10:03:57.625Z,13.45
2017-11-24T10:06:23.619Z,13.38
2017-11-24T10:08:49.562Z,13.42
2017-11-24T10:11:15.496Z,13.51
2017-11-24T10:13:41.444Z,13.62
2017-11-24T10:16:07.380Z,13.60
2017-11-24T10:18:33.322Z,13.76
2017-11-24T10:20:59.375Z,13.84
2017-11-24T10:23:25.337Z,13.80
2017-11-24T10:25:51.284Z,13.86
2017-11-24T10:28:17.211Z,13.96
2017-11-24T10:30:43.143Z,13.94
2017-11-24T10:33:09.059Z,14.09
2017-11-24T10:35:35.187Z,14.12
2017-11-24T10:38:01.159Z,14.13
2017-11-24T10:40:27.096Z,14.25
2017-11-24T10:42:53.037Z,14.25
2017-11-24T10:45:18.991Z,14.30
2017-11-24T10:47:44.927Z,14.35
2017-11-24T10:50:10.862Z,14.41
2017-11-24T10:52:36.819Z,14.41
2017-11-24T10:55:02.743Z,14.43
2017-11-24T10:57:28.693Z,14.44
2017-11-24T10:59:54.719Z,14.45
2017-11-24T11:02:20.681Z,14.35
2017-11-24T11:04:46.627Z,14.42
2017-11-24T11:07:12.560Z,14.50
2017-11-24T11:09:38.499Z,14.49
2017-11-24T11:12:04.415Z,14.54
2017-11-24T11:14:30.341Z,14.67
2017-11-24T11:16:56.271Z,14.65
2017-11-24T11:19:22.326Z,14.62
2017-11-24T11:21:48.368Z,14.53
2017-11-24T11:24:14.298Z,14.61
2017-11-24T11:26:40.255Z,14.69
2017-11-24T11:29:06.201Z,14.62
2017-11-24T11:31:32.135Z,14.71
2017-11-24T11:33:58.065Z,14.79
2017-11-24T11:36:24.027Z,14.82
2017-11-24T11:38:49.977Z,14.89
2017-11-24T11:41:16.015Z,14.92
2017-11-24T11:43:42.038Z,14.94
2017-11-24T11:46:08.011Z,15.08
2017-11-24T11:48:33.967Z,15.08
2017-11-24T11:50:59.902Z,15.21
2017-11-24T11:53:25.836Z,15.20
2017-11-24T11:55:51.834Z,15.23
2017-11-24T11:58:17.770Z,15.20
2017-11-24T12:00:43.776Z,15.20
2017-11-24T12:03:09.700Z,15.23
2017-11-24T12:05:35.638Z,15.21
2017-11-24T12:08:01.658Z,15.23
2017-11-24T12:10:27.657Z,15.18
2017-11-24T12:12:53.605Z,15.28
2017-11-24T12:15:19.525Z,15.21
2017-11-24T12:17:45.502Z,15.19
2017-11-24T12:20:11.434Z,15.21
2017-11-24T12:22:37.490Z,15.22
2017-11-24T12:25:03.428Z,15.23
2017-11-24T12:27:29.399Z,15.24
2017-11-24T12:29:55.327Z,15.16
2017-11-24T12:32:21.279Z,15.20
2017-11-24T12:34:47.236Z,15.20
2017-11-24T12:37:13.168Z,15.33
2017-11-24T12:39:39.116Z,15.31
2017-11-24T12:42:05.059Z,15.28
2017-11-24T12:44:30.988Z,15.34
2017-11-24T12:46:57.113Z,15.35
2017-11-24T12:49:23.047Z,15.32
2017-11-24T12:51:49.003Z,15.33
2017-11-24T12:54:14.966Z,15.34
2017-11-24T12:56:40.911Z,15.37
2017-11-24T12:59:06.871Z,15.33
2017-11-24T13:01:32.805Z,15.36
2017-11-24T13:03:58.745Z,15.41
2017-11-24T13:06:24.699Z,15.40
2017-11-24T13:08:50.661Z,15.46
2017-11-24T13:11:16.588Z,15.38
2017-11-24T13:13:42.530Z,15.38
2017-11-24T13:16:08.451Z,15.41
2017-11-24T13:18:34.389Z,15.43
2017-11-24T13:21:00.323Z,15.42
2017-11-24T13:23:26.244Z,15.35
2017-11-24T13:25:52.309Z,15.38
2017-11-24T13:28:18.236Z,15.36
2017-11-24T13:30:44.166Z,15.35
2017-11-24T13:33:10.113Z,15.33
2017-11-24T13:35:36.060Z,15.32
2017-11-24T13:38:01.987Z,15.33
2017-11-24T13:40:27.920Z,15.31
2017-11-24T13:42:53.866Z,15.32
2017-11-24T13:45:19.810Z,15.32
2017-11-24T13:47:45.764Z,15.32
2017-11-24T13:50:11.921Z,15.33
2017-11-24T13:52:37.915Z,15.32
2017-11-24T13:55:03.846Z,15.30
2017-11-24T13:57:29.875Z,15.30
2017-11-24T13:59:55.829Z,15.28
2017-11-24T14:02:21.789Z,15.26
2017-11-24T14:04:47.737Z,15.26
2017-11-24T14:07:13.689Z,15.27
2017-11-24T14:09:39.695Z,15.31
2017-11-24T14:12:05.643Z,15.26
2017-11-24T14:14:31.563Z,15.16
2017-11-24T14:16:57.509Z,15.17
2017-11-24T14:19:23.455Z,15.22
2017-11-24T14:21:49.384Z,15.25
2017-11-24T14:24:15.329Z,15.23
2017-11-24T14:26:41.265Z,15.45
2017-11-24T14:29:07.213Z,15.41
2017-11-24T14:31:33.150Z,15.47
2017-11-24T14:33:59.140Z,15.44
2017-11-24T14:36:25.082Z,15.48
2017-11-24T14:38:51.062Z,15.61
2017-11-24T14:41:16.957Z,15.57
2017-11-24T14:43:42.892Z,15.39
2017-11-24T14:46:08.840Z,15.33
2017-11-24T14:48:34.801Z,15.34
2017-11-24T14:51:00.746Z,15.27
2017-11-24T14:53:26.700Z,15.20
2017-11-24T14:55:52.639Z,15.23
2017-11-24T14:58:18.593Z,15.20
2017-11-24T15:00:44.562Z,15.12
2017-11-24T15:03:10.539Z,15.09
2017-11-24T15:05:36.492Z,15.08
2017-11-24T15:08:02.430Z,15.09
2017-11-24T15:10:28.381Z,15.08
2017-11-24T15:12:54.343Z,15.06
2017-11-24T15:15:20.310Z,15.03
2017-11-24T15:17:46.240Z,15.01
2017-11-24T15:20:12.186Z,15.01
2017-11-24T15:22:38.123Z,14.99
2017-11-24T15:25:04.495Z,14.98
2017-11-24T15:27:30.507Z,14.98
2017-11-24T15:29:56.449Z,15.00
2017-11-24T15:32:22.418Z,14.98
2017-11-24T15:34:48.392Z,15.05
2017-11-24T15:37:14.402Z,15.07
2017-11-24T15:39:40.334Z,15.01
2017-11-24T15:42:06.302Z,14.98
2017-11-24T15:44:32.273Z,14.98
2017-11-24T15:46:58.292Z,14.99
2017-11-24T15:49:24.254Z,14.97
2017-11-24T15:51:50.192Z,14.99
2017-11-24T15:54:16.137Z,15.03
2017-11-24T15:56:42.070Z,15.01
2017-11-24T15:59:08.008Z,14.98
2017-11-24T16:01:33.950Z,15.02
2017-11-24T16:03:59.903Z,15.10
2017-11-24T16:06:25.846Z,15.11
2017-11-24T16:08:51.905Z,15.12
2017-11-24T16:11:17.854Z,15.05
2017-11-24T16:13:43.781Z,15.05
2017-11-24T16:16:09.743Z,14.99
2017-11-24T16:18:35.783Z,15.01
2017-11-24T16:21:01.713Z,15.07
2017-11-24T16:23:27.648Z,15.07
2017-11-24T16:25:53.644Z,15.06
2017-11-24T16:28:19.583Z,15.03
2017-11-24T16:30:45.624Z,15.03
2017-11-24T16:33:11.567Z,15.01
2017-11-24T16:35:37.510Z,15.02
2017-11-24T16:38:03.456Z,14.99
2017-11-24T16:40:29.507Z,14.99
2017-11-24T16:42:55.525Z,15.02
2017-11-24T16:45:21.542Z,14.98
2017-11-24T16:47:47.515Z,14.98
2017-11-24T16:50:13.456Z,15.02
2017-11-24T16:52:39.397Z,14.98
2017-11-24T16:55:05.330Z,15.00
2017-11-24T16:57:31.288Z,14.97
2017-11-24T16:59:57.228Z,14.93
2017-11-24T17:02:23.160Z,14.96
2017-11-24T17:04:49.080Z,14.97
2017-11-24T17:07:15.027Z,14.96
2017-11-24T17:09:41.052Z,14.97
2017-11-24T17:12:06.982Z,15.00
2017-11-24T17:14:32.920Z,14.97
2017-11-24T17:16:58.867Z,14.95
2017-11-24T17:19:24.805Z,14.98
2017-11-24T17:21:50.736Z,14.98
2017-11-24T17:24:16.677Z,14.99
2017-11-24T17:26:42.627Z,15.03
2017-11-24T17:29:08.580Z,14.99
2017-11-24T17:31:34.504Z,15.01
2017-11-24T17:34:00.432Z,15.01
2017-11-24T17:36:26.396Z,14.99
2017-11-24T17:38:52.336Z,15.04
2017-11-24T17:41:18.285Z,15.06
2017-11-24T17:43:44.226Z,15.07
2017-11-24T17:46:10.164Z,15.06
2017-11-24T17:48:36.113Z,15.05
2017-11-24T17:51:02.046Z,15.07
2017-11-24T17:53:28.000Z,15.10
2017-11-24T17:55:53.972Z,15.10
2017-11-24T17:58:19.888Z,15.01
2017-11-24T18:00:45.828Z,14.47
2017-11-24T18:03:11.768Z,14.24
2017-11-24T18:05:37.696Z,14.46
2017-11-24T18:08:03.625Z,14.11
2017-11-24T18:10:29.573Z,13.95
2017-11-24T18:12:55.510Z,13.93
2017-11-24T18:15:21.438Z,13.90
2017-11-24T18:17:47.386Z,13.83
2017-11-24T18:20:13.340Z,13.85
2017-11-24T18:22:39.282Z,13.77
2017-11-24T18:25:05.218Z,13.90
2017-11-24T18:27:31.147Z,13.78
2017-11-24T18:29:57.108Z,13.78
2017-11-24T18:32:23.049Z,13.80
2017-11-24T18:34:48.964Z,13.77
2017-11-24T18:37:14.914Z,14.15
2017-11-24T18:39:40.843Z,13.86
2017-11-24T18:42:06.782Z,13.87
2017-11-24T18:44:32.732Z,13.86
2017-11-24T18:46:58.717Z,13.89
2017-11-24T18:49:24.867Z,13.93
2017-11-24T18:51:50.806Z,13.81
2017-11-24T18:54:16.813Z,13.68
2017-11-24T18:56:42.754Z,13.68
2017-11-24T18:59:08.711Z,13.65
2017-11-24T19:01:34.689Z,13.71
2017-11-24T19:04:00.621Z,13.72
2017-11-24T19:06:26.715Z,13.60
2017-11-24T19:08:52.728Z,13.58
2017-11-24T19:11:18.801Z,13.60
2017-11-24T19:13:44.741Z,13.58
2017-11-24T19:16:10.707Z,13.57
2017-11-24T19:18:36.751Z,13.53
2017-11-24T19:21:02.748Z,13.52
2017-11-24T19:23:28.693Z,13.51
2017-11-24T19:25:54.625Z,13.44
2017-11-24T19:28:20.586Z,13.50
2017-11-24T19:30:46.607Z,13.42
2017-11-24T19:33:12.544Z,13.36
2017-11-24T19:35:38.521Z,13.34
2017-11-24T19:38:04.855Z,13.35
2017-11-24T19:40:30.827Z,13.32
2017-11-24T19:42:56.775Z,13.49
2017-11-24T19:45:22.749Z,13.28
2017-11-24T19:47:48.686Z,13.18
2017-11-24T19:50:14.785Z,13.26
2017-11-24T19:52:40.735Z,13.09
2017-11-24T19:55:06.706Z,13.02
2017-11-24T19:57:32.685Z,13.14
2017-11-24T19:59:58.648Z,13.27
2017-11-24T20:02:24.660Z,13.16
2017-11-24T20:04:50.725Z,13.06
2017-11-24T20:07:16.664Z,12.97
2017-11-24T20:09:42.630Z,12.94
2017-11-24T20:12:08.598Z,12.95
2017-11-24T20:14:34.567Z,12.86
2017-11-24T20:17:00.916Z,12.89
2017-11-24T20:19:26.900Z,12.95
2017-11-24T20:21:52.848Z,12.86
2017-11-24T20:24:18.778Z,12.86
2017-11-24T20:26:44.731Z,12.87
2017-11-24T20:29:10.677Z,12.75
2017-11-24T20:31:36.657Z,12.74
2017-11-24T20:34:02.617Z,12.96
2017-11-24T20:36:28.553Z,12.81
2017-11-24T20:38:54.497Z,12.56
2017-11-24T20:41:20.486Z,12.91
2017-11-24T20:43:46.433Z,12.78
2017-11-24T20:46:12.366Z,12.75
2017-11-24T20:48:38.335Z,12.84
2017-11-24T20:51:04.279Z,12.74
2017-11-24T20:53:30.248Z,12.79
2017-11-24T20:55:56.220Z,12.89
2017-11-24T20:58:22.204Z,12.81
2017-11-24T21:00:48.164Z,12.89
2017-11-24T21:03:14.151Z,12.63
2017-11-24T21:05:40.079Z,12.68
2017-11-24T21:08:06.035Z,12.70
2017-11-24T21:10:33.041Z,12.77
2017-11-24T21:12:58.968Z,12.51
2017-11-24T21:15:24.920Z,12.45
2017-11-24T21:17:50.889Z,12.62
2017-11-24T21:20:16.856Z,12.69
2017-11-24T21:22:42.797Z,12.47
2017-11-24T21:25:08.730Z,12.77
2017-11-24T21:27:34.662Z,12.75
2017-11-24T21:30:00.630Z,12.92
2017-11-24T21:32:26.636Z,12.91
2017-11-24T21:34:52.688Z,12.69
2017-11-24T21:37:18.666Z,12.69
2017-11-24T21:39:44.617Z,12.79
2017-11-24T21:42:11.574Z,12.75
2017-11-24T21:44:37.508Z,12.75
2017-11-24T21:47:03.468Z,12.66
2017-11-24T21:49:29.441Z,12.32
2017-11-24T21:51:55.437Z,12.48
2017-11-24T21:54:21.439Z,12.66
2017-11-24T21:56:47.400Z,12.50
2017-11-24T21:59:13.430Z,12.27
2017-11-24T22:01:39.445Z,12.39
2017-11-24T22:04:05.395Z,12.54
2017-11-24T22:06:31.352Z,12.52
2017-11-24T22:08:57.296Z,12.55
2017-11-24T22:11:23.268Z,12.29
2017-11-24T22:13:49.264Z,12.52
2017-11-24T22:16:15.235Z,12.64
2017-11-24T22:18:41.178Z,12.51
2017-11-24T22:21:07.168Z,12.40
2017-11-24T22:23:33.351Z,12.43
2017-11-24T22:25:59.292Z,12.50
2017-11-24T22:28:25.236Z,12.56
2017-11-24T22:30:51.243Z,12.55
2017-11-24T22:33:17.247Z,12.66
2017-11-24T22:35:43.259Z,12.68
2017-11-24T22:38:09.208Z,12.57
2017-11-24T22:40:35.138Z,12.59
2017-11-24T22:43:01.077Z,12.60
2017-11-24T22:45:27.014Z,12.56
2017-11-24T22:47:52.992Z,12.60
2017-11-24T22:50:18.925Z,12.56
2017-11-24T22:52:44.862Z,12.52
2017-11-24T22:55:10.800Z,12.63
2017-11-24T22:57:36.780Z,12.52
2017-11-24T23:00:02.815Z,12.53
2017-11-24T23:02:28.784Z,12.48
2017-11-24T23:04:54.746Z,12.60
2017-11-24T23:07:20.726Z,12.55
2017-11-24T23:09:46.706Z,12.61
2017-11-24T23:12:12.656Z,12.51
2017-11-24T23:14:38.600Z,12.51
2017-11-24T23:17:06.007Z,12.54
2017-11-24T23:19:32.085Z,12.48
2017-11-24T23:21:58.029Z,12.46
2017-11-24T23:24:23.958Z,12.42
2017-11-24T23:26:49.912Z,12.18
2017-11-24T23:29:15.877Z,12.25
2017-11-24T23:31:41.848Z,12.45
2017-11-24T23:34:07.795Z,12.44
2017-11-24T23:36:33.791Z,12.47
2017-11-24T23:38:59.766Z,12.32
2017-11-24T23:41:25.705Z,12.20
2017-11-24T23:43:51.660Z,12.03
2017-11-24T23:46:17.756Z,11.89
2017-11-24T23:48:43.719Z,11.76
2017-11-24T23:51:09.660Z,11.98
2017-11-24T23:53:35.684Z,12.27
2017-11-24T23:56:01.680Z,12.19
2017-11-24T23:58:27.617Z,12.08
